sensor_id;sensor_type;location;lat;lon;timestamp;pressure;altitude;pressure_sealevel;temperature;humidity
31062;BME280;17724;53.546;9.974;2023-12-07T00:03:26;101731.81;;;2.50;100.00
31062;BME280;17724;53.546;9.974;2023-12-07T00:07:26;101741.72;;;2.42;100.00
31062;BME280;17724;53.546;9.974;2023-12-07T00:11:27;101740.88;;;2.19;100.00
31062;BME280;17724;53.546;9.974;2023-12-07T00:15:27;101725.50;;;2.34;100.00
31062;BME280;17724;53.546;9.974;2023-12-07T00:19:28;101738.03;;;2.35;100.00
31062;BME280;17724;53.546;9.974;2023-12-07T00:23:28;101738.03;;;2.35;100.00
31062;BME280;17724;53.546;9.974;2023-12-07T00:27:28;101746.44;;;2.26;100.00
31062;BME280;17724;53.546;9.974;2023-12-07T00:31:29;101748.06;;;2.12;100.00
31062;BME280;17724;53.546;9.974;2023-12-07T00:35:30;101749.09;;;2.34;100.00
31062;BME280;17724;53.546;9.974;2023-12-07T00:39:30;101745.81;;;2.38;100.00
31062;BME280;17724;53.546;9.974;2023-12-07T00:43:30;101753.72;;;2.25;100.00
31062;BME280;17724;53.546;9.974;2023-12-07T00:47:31;101755.34;;;2.11;100.00
31062;BME280;17724;53.546;9.974;2023-12-07T00:51:31;101755.97;;;2.21;100.00
31062;BME280;17724;53.546;9.974;2023-12-07T00:55:32;101758.31;;;2.25;100.00
31062;BME280;17724;53.546;9.974;2023-12-07T00:59:32;101760.47;;;2.06;100.00
31062;BME280;17724;53.546;9.974;2023-12-07T01:03:36;101771.56;;;1.96;100.00
31062;BME280;17724;53.546;9.974;2023-12-07T01:07:37;101768.09;;;2.03;100.00
31062;BME280;17724;53.546;9.974;2023-12-07T01:11:37;101771.81;;;2.10;100.00
31062;BME280;17724;53.546;9.974;2023-12-07T01:15:38;101788.97;;;2.33;100.00
31062;BME280;17724;53.546;9.974;2023-12-07T01:19:38;101788.78;;;2.35;100.00
31062;BME280;17724;53.546;9.974;2023-12-07T01:23:39;101799.03;;;2.25;100.00
31062;BME280;17724;53.546;9.974;2023-12-07T01:27:39;101792.69;;;2.55;100.00
31062;BME280;17724;53.546;9.974;2023-12-07T01:31:40;101801.16;;;2.60;100.00
31062;BME280;17724;53.546;9.974;2023-12-07T01:35:41;101797.59;;;2.60;100.00
31062;BME280;17724;53.546;9.974;2023-12-07T01:39:41;101802.78;;;2.69;100.00
31062;BME280;17724;53.546;9.974;2023-12-07T01:43:46;101805.63;;;2.53;100.00
31062;BME280;17724;53.546;9.974;2023-12-07T01:47:48;101812.25;;;2.51;100.00
31062;BME280;17724;53.546;9.974;2023-12-07T01:51:49;101812.69;;;2.62;100.00
31062;BME280;17724;53.546;9.974;2023-12-07T01:55:53;101816.13;;;2.56;100.00
31062;BME280;17724;53.546;9.974;2023-12-07T01:59:54;101808.34;;;2.76;100.00
31062;BME280;17724;53.546;9.974;2023-12-07T02:03:54;101811.06;;;2.76;100.00
31062;BME280;17724;53.546;9.974;2023-12-07T02:07:55;101811.22;;;2.75;100.00
31062;BME280;17724;53.546;9.974;2023-12-07T02:11:55;101814.50;;;2.70;100.00
31062;BME280;17724;53.546;9.974;2023-12-07T02:15:57;101815.25;;;2.79;100.00
31062;BME280;17724;53.546;9.974;2023-12-07T02:25:10;101824.50;;;2.46;100.00
31062;BME280;17724;53.546;9.974;2023-12-07T02:29:10;101822.47;;;2.71;100.00
31062;BME280;17724;53.546;9.974;2023-12-07T02:33:11;101835.19;;;2.71;100.00
31062;BME280;17724;53.546;9.974;2023-12-07T02:37:12;101837.25;;;2.69;100.00
31062;BME280;17724;53.546;9.974;2023-12-07T02:41:13;101831.47;;;2.72;100.00
31062;BME280;17724;53.546;9.974;2023-12-07T02:45:14;101834.72;;;2.67;100.00
31062;BME280;17724;53.546;9.974;2023-12-07T02:49:15;101835.25;;;2.63;100.00
31062;BME280;17724;53.546;9.974;2023-12-07T02:53:15;101826.84;;;2.50;100.00
31062;BME280;17724;53.546;9.974;2023-12-07T02:57:16;101834.25;;;2.64;100.00
31062;BME280;17724;53.546;9.974;2023-12-07T03:01:16;101844.06;;;2.65;100.00
31062;BME280;17724;53.546;9.974;2023-12-07T03:05:17;101847.81;;;2.64;100.00
31062;BME280;17724;53.546;9.974;2023-12-07T03:09:20;101838.56;;;2.73;100.00
31062;BME280;17724;53.546;9.974;2023-12-07T03:13:20;101846.97;;;2.86;100.00
31062;BME280;17724;53.546;9.974;2023-12-07T03:17:20;101845.16;;;2.56;100.00
31062;BME280;17724;53.546;9.974;2023-12-07T03:21:21;101843.38;;;2.63;100.00
31062;BME280;17724;53.546;9.974;2023-12-07T03:25:22;101856.78;;;2.41;100.00
31062;BME280;17724;53.546;9.974;2023-12-07T03:29:22;101840.88;;;2.61;100.00
31062;BME280;17724;53.546;9.974;2023-12-07T03:33:22;101840.50;;;2.64;100.00
31062;BME280;17724;53.546;9.974;2023-12-07T03:37:23;101851.81;;;2.76;100.00
31062;BME280;17724;53.546;9.974;2023-12-07T03:41:23;101846.25;;;2.69;100.00
31062;BME280;17724;53.546;9.974;2023-12-07T03:45:24;101847.16;;;2.85;100.00
31062;BME280;17724;53.546;9.974;2023-12-07T03:49:25;101852.88;;;2.90;100.00
31062;BME280;17724;53.546;9.974;2023-12-07T03:53:25;101860.66;;;2.93;100.00
31062;BME280;17724;53.546;9.974;2023-12-07T03:57:25;101849.31;;;2.89;100.00
31062;BME280;17724;53.546;9.974;2023-12-07T04:01:27;101848.13;;;2.92;100.00
31062;BME280;17724;53.546;9.974;2023-12-07T04:05:28;101854.94;;;2.88;100.00
31062;BME280;17724;53.546;9.974;2023-12-07T04:09:29;101859.16;;;2.90;100.00
31062;BME280;17724;53.546;9.974;2023-12-07T04:13:30;101875.59;;;2.97;100.00
31062;BME280;17724;53.546;9.974;2023-12-07T04:17:31;101862.72;;;2.91;100.00
31062;BME280;17724;53.546;9.974;2023-12-07T04:21:31;101873.56;;;2.91;100.00
31062;BME280;17724;53.546;9.974;2023-12-07T04:25:32;101860.59;;;3.01;100.00
31062;BME280;17724;53.546;9.974;2023-12-07T04:29:32;101861.94;;;3.05;100.00
31062;BME280;17724;53.546;9.974;2023-12-07T04:33:33;101862.47;;;3.01;100.00
31062;BME280;17724;53.546;9.974;2023-12-07T04:37:33;101865.00;;;3.02;100.00
31062;BME280;17724;53.546;9.974;2023-12-07T04:41:34;101865.19;;;3.01;100.00
31062;BME280;17724;53.546;9.974;2023-12-07T04:45:34;101878.72;;;3.09;100.00
31062;BME280;17724;53.546;9.974;2023-12-07T04:49:35;101885.91;;;3.02;100.00
31062;BME280;17724;53.546;9.974;2023-12-07T04:53:35;101891.81;;;3.05;100.00
31062;BME280;17724;53.546;9.974;2023-12-07T04:57:36;101903.97;;;2.94;100.00
31062;BME280;17724;53.546;9.974;2023-12-07T05:01:37;101896.31;;;2.67;100.00
31062;BME280;17724;53.546;9.974;2023-12-07T05:05:37;101894.13;;;2.93;100.00
31062;BME280;17724;53.546;9.974;2023-12-07T05:09:38;101891.31;;;2.79;100.00
31062;BME280;17724;53.546;9.974;2023-12-07T05:13:38;101885.59;;;2.74;100.00
31062;BME280;17724;53.546;9.974;2023-12-07T05:17:39;101901.75;;;2.67;100.00
31062;BME280;17724;53.546;9.974;2023-12-07T05:21:39;101893.03;;;2.80;100.00
31062;BME280;17724;53.546;9.974;2023-12-07T05:25:40;101907.13;;;2.75;100.00
31062;BME280;17724;53.546;9.974;2023-12-07T05:29:40;101907.56;;;2.87;100.00
31062;BME280;17724;53.546;9.974;2023-12-07T05:33:41;101904.63;;;2.74;100.00
31062;BME280;17724;53.546;9.974;2023-12-07T05:37:41;101905.69;;;2.64;100.00
31062;BME280;17724;53.546;9.974;2023-12-07T05:41:42;101901.84;;;2.82;100.00
31062;BME280;17724;53.546;9.974;2023-12-07T05:45:42;101904.75;;;2.49;100.00
31062;BME280;17724;53.546;9.974;2023-12-07T05:49:43;101902.63;;;2.67;100.00
31062;BME280;17724;53.546;9.974;2023-12-07T05:53:44;101899.38;;;2.72;100.00
31062;BME280;17724;53.546;9.974;2023-12-07T05:57:45;101912.31;;;2.62;100.00
31062;BME280;17724;53.546;9.974;2023-12-07T06:01:46;101913.41;;;2.84;100.00
31062;BME280;17724;53.546;9.974;2023-12-07T06:05:47;101910.53;;;2.77;100.00
31062;BME280;17724;53.546;9.974;2023-12-07T06:09:47;101902.22;;;3.02;100.00
31062;BME280;17724;53.546;9.974;2023-12-07T06:13:47;101904.78;;;2.95;100.00
31062;BME280;17724;53.546;9.974;2023-12-07T06:17:48;101911.19;;;3.02;100.00
31062;BME280;17724;53.546;9.974;2023-12-07T06:21:48;101894.72;;;2.81;100.00
31062;BME280;17724;53.546;9.974;2023-12-07T06:25:49;101911.19;;;2.79;100.00
31062;BME280;17724;53.546;9.974;2023-12-07T06:29:49;101912.88;;;3.03;100.00
31062;BME280;17724;53.546;9.974;2023-12-07T06:33:50;101924.44;;;3.05;100.00
31062;BME280;17724;53.546;9.974;2023-12-07T06:37:50;101921.22;;;3.02;100.00
31062;BME280;17724;53.546;9.974;2023-12-07T06:41:51;101935.38;;;2.97;100.00
31062;BME280;17724;53.546;9.974;2023-12-07T06:45:51;101936.22;;;2.97;100.00
31062;BME280;17724;53.546;9.974;2023-12-07T06:49:53;101932.97;;;2.71;100.00
31062;BME280;17724;53.546;9.974;2023-12-07T06:53:53;101926.41;;;2.65;100.00
31062;BME280;17724;53.546;9.974;2023-12-07T06:57:54;101934.69;;;2.72;100.00
31062;BME280;17724;53.546;9.974;2023-12-07T07:01:54;101938.84;;;2.60;100.00
31062;BME280;17724;53.546;9.974;2023-12-07T07:05:55;101934.44;;;2.82;100.00
31062;BME280;17724;53.546;9.974;2023-12-07T07:09:55;101948.66;;;2.92;100.00
31062;BME280;17724;53.546;9.974;2023-12-07T07:13:57;101950.31;;;2.70;100.00
31062;BME280;17724;53.546;9.974;2023-12-07T07:17:58;101946.03;;;2.99;100.00
31062;BME280;17724;53.546;9.974;2023-12-07T07:21:58;101959.28;;;3.02;100.00
31062;BME280;17724;53.546;9.974;2023-12-07T07:25:59;101968.78;;;2.75;100.00
31062;BME280;17724;53.546;9.974;2023-12-07T07:29:59;101964.53;;;2.80;100.00
31062;BME280;17724;53.546;9.974;2023-12-07T07:34:00;101962.63;;;3.12;100.00
31062;BME280;17724;53.546;9.974;2023-12-07T07:38:01;101968.47;;;3.01;100.00
31062;BME280;17724;53.546;9.974;2023-12-07T07:42:01;101956.91;;;2.99;100.00
31062;BME280;17724;53.546;9.974;2023-12-07T07:46:06;101955.59;;;2.94;100.00
31062;BME280;17724;53.546;9.974;2023-12-07T07:50:06;101960.91;;;3.11;100.00
31062;BME280;17724;53.546;9.974;2023-12-07T07:54:07;101975.28;;;2.96;100.00
31062;BME280;17724;53.546;9.974;2023-12-07T07:58:07;101975.03;;;2.83;100.00
31062;BME280;17724;53.546;9.974;2023-12-07T08:02:08;101983.56;;;3.03;100.00
31062;BME280;17724;53.546;9.974;2023-12-07T08:06:08;101986.34;;;3.18;100.00
31062;BME280;17724;53.546;9.974;2023-12-07T08:10:09;101983.03;;;3.31;100.00
31062;BME280;17724;53.546;9.974;2023-12-07T08:14:09;101994.09;;;3.29;100.00
31062;BME280;17724;53.546;9.974;2023-12-07T08:18:10;101993.13;;;2.91;100.00
31062;BME280;17724;53.546;9.974;2023-12-07T08:22:10;101992.94;;;3.01;100.00
31062;BME280;17724;53.546;9.974;2023-12-07T08:26:11;101994.91;;;3.07;100.00
31062;BME280;17724;53.546;9.974;2023-12-07T08:30:12;101999.78;;;3.19;100.00
31062;BME280;17724;53.546;9.974;2023-12-07T08:34:12;101993.72;;;3.32;100.00
31062;BME280;17724;53.546;9.974;2023-12-07T08:38:13;101995.47;;;3.48;100.00
31062;BME280;17724;53.546;9.974;2023-12-07T08:42:13;101992.50;;;3.58;100.00
31062;BME280;17724;53.546;9.974;2023-12-07T08:46:14;101990.63;;;3.58;100.00
31062;BME280;17724;53.546;9.974;2023-12-07T08:50:14;101998.28;;;3.55;100.00
31062;BME280;17724;53.546;9.974;2023-12-07T08:54:15;101993.75;;;3.70;100.00
31062;BME280;17724;53.546;9.974;2023-12-07T08:58:16;101992.63;;;3.41;100.00
31062;BME280;17724;53.546;9.974;2023-12-07T09:02:17;101996.50;;;3.47;100.00
31062;BME280;17724;53.546;9.974;2023-12-07T09:06:17;102007.25;;;3.63;100.00
31062;BME280;17724;53.546;9.974;2023-12-07T09:10:19;102005.94;;;3.59;100.00
31062;BME280;17724;53.546;9.974;2023-12-07T09:14:19;102003.50;;;3.64;100.00
31062;BME280;17724;53.546;9.974;2023-12-07T09:18:20;101999.09;;;3.63;100.00
31062;BME280;17724;53.546;9.974;2023-12-07T09:22:20;102002.28;;;3.67;100.00
31062;BME280;17724;53.546;9.974;2023-12-07T09:26:20;101997.66;;;3.53;100.00
31062;BME280;17724;53.546;9.974;2023-12-07T09:30:21;102010.34;;;3.60;100.00
31062;BME280;17724;53.546;9.974;2023-12-07T09:34:22;102012.34;;;3.43;100.00
31062;BME280;17724;53.546;9.974;2023-12-07T09:38:23;102011.59;;;3.50;100.00
31062;BME280;17724;53.546;9.974;2023-12-07T09:42:23;102009.19;;;3.55;100.00
31062;BME280;17724;53.546;9.974;2023-12-07T09:46:24;102007.88;;;3.28;100.00
31062;BME280;17724;53.546;9.974;2023-12-07T09:50:26;101994.94;;;3.30;100.00
31062;BME280;17724;53.546;9.974;2023-12-07T09:54:29;102014.22;;;3.20;100.00
31062;BME280;17724;53.546;9.974;2023-12-07T09:58:30;102009.44;;;3.45;100.00
31062;BME280;17724;53.546;9.974;2023-12-07T10:02:31;102008.53;;;3.53;100.00
31062;BME280;17724;53.546;9.974;2023-12-07T10:06:42;102022.84;;;3.46;100.00
31062;BME280;17724;53.546;9.974;2023-12-07T10:10:43;102034.88;;;3.52;100.00
31062;BME280;17724;53.546;9.974;2023-12-07T10:14:44;102038.44;;;2.99;100.00
31062;BME280;17724;53.546;9.974;2023-12-07T10:18:44;102027.97;;;3.18;100.00
31062;BME280;17724;53.546;9.974;2023-12-07T10:22:45;102032.34;;;3.28;100.00
31062;BME280;17724;53.546;9.974;2023-12-07T10:26:48;102024.00;;;3.29;100.00
31062;BME280;17724;53.546;9.974;2023-12-07T10:30:50;102004.19;;;3.20;100.00
31062;BME280;17724;53.546;9.974;2023-12-07T10:34:51;102026.06;;;3.50;100.00
31062;BME280;17724;53.546;9.974;2023-12-07T10:38:53;102024.63;;;3.39;100.00
31062;BME280;17724;53.546;9.974;2023-12-07T10:42:57;102015.09;;;3.58;100.00
31062;BME280;17724;53.546;9.974;2023-12-07T10:46:58;102020.59;;;3.73;100.00
31062;BME280;17724;53.546;9.974;2023-12-07T10:51:06;102027.78;;;3.43;100.00
31062;BME280;17724;53.546;9.974;2023-12-07T10:55:24;102020.38;;;3.37;100.00
31062;BME280;17724;53.546;9.974;2023-12-07T10:59:29;102018.56;;;3.52;100.00
31062;BME280;17724;53.546;9.974;2023-12-07T11:03:31;102026.13;;;3.42;100.00
31062;BME280;17724;53.546;9.974;2023-12-07T11:07:50;102020.19;;;3.61;100.00
31062;BME280;17724;53.546;9.974;2023-12-07T11:12:00;102012.09;;;3.53;100.00
31062;BME280;17724;53.546;9.974;2023-12-07T11:16:03;102017.75;;;3.66;100.00
31062;BME280;17724;53.546;9.974;2023-12-07T11:20:05;102014.88;;;3.83;100.00
31062;BME280;17724;53.546;9.974;2023-12-07T11:24:06;102004.31;;;3.88;100.00
31062;BME280;17724;53.546;9.974;2023-12-07T11:28:06;102005.81;;;3.90;100.00
31062;BME280;17724;53.546;9.974;2023-12-07T11:32:07;102004.13;;;3.89;100.00
31062;BME280;17724;53.546;9.974;2023-12-07T11:36:09;102006.97;;;3.96;100.00
31062;BME280;17724;53.546;9.974;2023-12-07T11:40:10;102001.47;;;3.81;100.00
31062;BME280;17724;53.546;9.974;2023-12-07T11:44:11;102002.59;;;3.87;100.00
31062;BME280;17724;53.546;9.974;2023-12-07T11:48:13;102000.97;;;4.15;100.00
31062;BME280;17724;53.546;9.974;2023-12-07T11:52:21;102004.81;;;4.21;100.00
31062;BME280;17724;53.546;9.974;2023-12-07T11:56:21;102002.56;;;4.25;100.00
31062;BME280;17724;53.546;9.974;2023-12-07T12:00:22;101994.50;;;4.31;100.00
31062;BME280;17724;53.546;9.974;2023-12-07T12:04:23;101998.44;;;4.43;100.00
31062;BME280;17724;53.546;9.974;2023-12-07T12:08:24;101994.75;;;4.66;100.00
31062;BME280;17724;53.546;9.974;2023-12-07T12:12:25;101986.78;;;4.64;100.00
31062;BME280;17724;53.546;9.974;2023-12-07T12:16:25;101977.50;;;4.59;100.00
31062;BME280;17724;53.546;9.974;2023-12-07T12:20:26;101969.00;;;4.68;100.00
31062;BME280;17724;53.546;9.974;2023-12-07T12:24:27;101966.22;;;4.17;100.00
31062;BME280;17724;53.546;9.974;2023-12-07T12:28:29;101952.31;;;4.42;100.00
31062;BME280;17724;53.546;9.974;2023-12-07T12:32:43;101957.44;;;4.66;100.00
31062;BME280;17724;53.546;9.974;2023-12-07T12:36:43;101969.50;;;4.42;100.00
31062;BME280;17724;53.546;9.974;2023-12-07T12:40:44;101965.94;;;4.42;100.00
31062;BME280;17724;53.546;9.974;2023-12-07T12:44:44;101960.69;;;4.40;100.00
31062;BME280;17724;53.546;9.974;2023-12-07T12:48:59;101955.81;;;4.36;100.00
31062;BME280;17724;53.546;9.974;2023-12-07T12:53:00;101957.28;;;4.38;100.00
31062;BME280;17724;53.546;9.974;2023-12-07T12:57:06;101948.72;;;4.56;100.00
31062;BME280;17724;53.546;9.974;2023-12-07T13:01:07;101958.50;;;4.51;100.00
31062;BME280;17724;53.546;9.974;2023-12-07T13:05:08;101952.09;;;4.58;100.00
31062;BME280;17724;53.546;9.974;2023-12-07T13:09:08;101949.69;;;4.49;100.00
31062;BME280;17724;53.546;9.974;2023-12-07T13:13:09;101942.25;;;4.57;100.00
31062;BME280;17724;53.546;9.974;2023-12-07T13:17:09;101947.31;;;4.60;100.00
31062;BME280;17724;53.546;9.974;2023-12-07T13:21:10;101935.94;;;4.57;100.00
31062;BME280;17724;53.546;9.974;2023-12-07T13:25:11;101928.84;;;4.41;100.00
31062;BME280;17724;53.546;9.974;2023-12-07T13:29:14;101938.53;;;4.43;100.00
31062;BME280;17724;53.546;9.974;2023-12-07T13:33:15;101937.47;;;4.44;100.00
31062;BME280;17724;53.546;9.974;2023-12-07T13:37:15;101934.59;;;4.31;100.00
31062;BME280;17724;53.546;9.974;2023-12-07T13:41:16;101918.06;;;4.33;100.00
31062;BME280;17724;53.546;9.974;2023-12-07T13:45:16;101923.94;;;4.51;100.00
31062;BME280;17724;53.546;9.974;2023-12-07T13:49:17;101923.00;;;4.59;100.00
31062;BME280;17724;53.546;9.974;2023-12-07T13:53:17;101927.38;;;4.24;100.00
31062;BME280;17724;53.546;9.974;2023-12-07T13:57:19;101915.34;;;4.03;100.00
31062;BME280;17724;53.546;9.974;2023-12-07T14:01:20;101927.53;;;4.37;100.00
31062;BME280;17724;53.546;9.974;2023-12-07T14:05:21;101913.44;;;4.33;100.00
31062;BME280;17724;53.546;9.974;2023-12-07T14:09:23;101914.59;;;3.94;100.00
31062;BME280;17724;53.546;9.974;2023-12-07T14:13:23;101919.00;;;3.95;100.00
31062;BME280;17724;53.546;9.974;2023-12-07T14:17:25;101920.25;;;4.08;100.00
31062;BME280;17724;53.546;9.974;2023-12-07T14:21:26;101919.66;;;4.27;100.00
31062;BME280;17724;53.546;9.974;2023-12-07T14:25:26;101918.41;;;4.44;100.00
31062;BME280;17724;53.546;9.974;2023-12-07T14:29:27;101919.84;;;4.26;100.00
31062;BME280;17724;53.546;9.974;2023-12-07T14:33:27;101912.59;;;4.33;100.00
31062;BME280;17724;53.546;9.974;2023-12-07T14:37:28;101905.94;;;4.20;100.00
31062;BME280;17724;53.546;9.974;2023-12-07T14:41:29;101909.13;;;4.39;100.00
31062;BME280;17724;53.546;9.974;2023-12-07T14:45:29;101917.78;;;4.13;100.00
31062;BME280;17724;53.546;9.974;2023-12-07T14:49:30;101913.28;;;4.20;100.00
31062;BME280;17724;53.546;9.974;2023-12-07T14:53:30;101900.22;;;3.86;100.00
31062;BME280;17724;53.546;9.974;2023-12-07T14:57:31;101908.13;;;3.81;100.00
31062;BME280;17724;53.546;9.974;2023-12-07T15:01:32;101911.78;;;3.88;100.00
31062;BME280;17724;53.546;9.974;2023-12-07T15:05:32;101930.91;;;3.94;100.00
31062;BME280;17724;53.546;9.974;2023-12-07T15:09:34;101933.34;;;3.89;100.00
31062;BME280;17724;53.546;9.974;2023-12-07T15:13:36;101931.22;;;4.00;100.00
31062;BME280;17724;53.546;9.974;2023-12-07T15:17:36;101935.34;;;4.10;100.00
31062;BME280;17724;53.546;9.974;2023-12-07T15:21:37;101916.44;;;3.64;100.00
31062;BME280;17724;53.546;9.974;2023-12-07T15:25:38;101916.94;;;3.68;100.00
31062;BME280;17724;53.546;9.974;2023-12-07T15:29:38;101924.81;;;3.92;100.00
31062;BME280;17724;53.546;9.974;2023-12-07T15:33:39;101924.25;;;3.97;100.00
31062;BME280;17724;53.546;9.974;2023-12-07T15:37:39;101919.19;;;4.09;100.00
31062;BME280;17724;53.546;9.974;2023-12-07T15:41:40;101923.03;;;4.14;100.00
31062;BME280;17724;53.546;9.974;2023-12-07T15:45:40;101926.31;;;4.10;100.00
31062;BME280;17724;53.546;9.974;2023-12-07T15:49:41;101927.53;;;4.22;100.00
31062;BME280;17724;53.546;9.974;2023-12-07T15:53:42;101939.66;;;4.05;100.00
31062;BME280;17724;53.546;9.974;2023-12-07T15:57:42;101946.69;;;4.14;100.00
31062;BME280;17724;53.546;9.974;2023-12-07T16:01:43;101952.63;;;4.32;100.00
31062;BME280;17724;53.546;9.974;2023-12-07T16:05:44;101954.41;;;4.25;100.00
31062;BME280;17724;53.546;9.974;2023-12-07T16:09:44;101956.00;;;4.19;100.00
31062;BME280;17724;53.546;9.974;2023-12-07T16:13:44;101946.13;;;4.18;100.00
31062;BME280;17724;53.546;9.974;2023-12-07T16:17:45;101950.47;;;4.28;100.00
31062;BME280;17724;53.546;9.974;2023-12-07T16:21:45;101945.00;;;4.13;100.00
31062;BME280;17724;53.546;9.974;2023-12-07T16:25:46;101951.88;;;4.24;100.00
31062;BME280;17724;53.546;9.974;2023-12-07T16:29:46;101952.25;;;4.20;100.00
31062;BME280;17724;53.546;9.974;2023-12-07T16:33:47;101954.25;;;3.59;100.00
31062;BME280;17724;53.546;9.974;2023-12-07T16:37:47;101946.59;;;3.92;100.00
31062;BME280;17724;53.546;9.974;2023-12-07T16:41:48;101945.09;;;3.90;100.00
31062;BME280;17724;53.546;9.974;2023-12-07T16:45:48;101935.16;;;4.12;100.00
31062;BME280;17724;53.546;9.974;2023-12-07T16:49:49;101925.91;;;4.42;100.00
31062;BME280;17724;53.546;9.974;2023-12-07T16:53:49;101916.69;;;4.07;100.00
31062;BME280;17724;53.546;9.974;2023-12-07T16:57:50;101920.69;;;4.26;100.00
31062;BME280;17724;53.546;9.974;2023-12-07T17:01:50;101911.59;;;3.89;100.00
31062;BME280;17724;53.546;9.974;2023-12-07T17:05:52;101915.25;;;3.82;100.00
31062;BME280;17724;53.546;9.974;2023-12-07T17:09:52;101912.25;;;3.39;100.00
31062;BME280;17724;53.546;9.974;2023-12-07T17:13:52;101899.63;;;3.46;100.00
31062;BME280;17724;53.546;9.974;2023-12-07T17:17:53;101892.41;;;3.53;100.00
31062;BME280;17724;53.546;9.974;2023-12-07T17:21:53;101898.34;;;4.01;100.00
31062;BME280;17724;53.546;9.974;2023-12-07T17:25:54;101892.91;;;4.01;100.00
31062;BME280;17724;53.546;9.974;2023-12-07T17:29:54;101881.34;;;4.29;100.00
31062;BME280;17724;53.546;9.974;2023-12-07T17:33:55;101886.88;;;4.35;100.00
31062;BME280;17724;53.546;9.974;2023-12-07T17:37:55;101878.81;;;4.12;100.00
31062;BME280;17724;53.546;9.974;2023-12-07T17:41:55;101871.66;;;4.26;100.00
31062;BME280;17724;53.546;9.974;2023-12-07T17:45:56;101866.41;;;4.39;100.00
31062;BME280;17724;53.546;9.974;2023-12-07T17:49:56;101869.97;;;4.25;100.00
31062;BME280;17724;53.546;9.974;2023-12-07T17:53:57;101860.75;;;4.62;100.00
31062;BME280;17724;53.546;9.974;2023-12-07T17:57:57;101855.38;;;3.82;100.00
31062;BME280;17724;53.546;9.974;2023-12-07T18:01:58;101852.81;;;4.10;100.00
31062;BME280;17724;53.546;9.974;2023-12-07T18:06:12;101846.44;;;4.03;100.00
31062;BME280;17724;53.546;9.974;2023-12-07T18:10:12;101833.41;;;3.54;100.00
31062;BME280;17724;53.546;9.974;2023-12-07T18:14:16;101829.66;;;3.40;100.00
31062;BME280;17724;53.546;9.974;2023-12-07T18:18:17;101817.03;;;3.09;100.00
31062;BME280;17724;53.546;9.974;2023-12-07T18:22:17;101815.19;;;2.87;100.00
31062;BME280;17724;53.546;9.974;2023-12-07T18:26:18;101809.47;;;2.82;100.00
31062;BME280;17724;53.546;9.974;2023-12-07T18:30:18;101811.53;;;2.80;100.00
31062;BME280;17724;53.546;9.974;2023-12-07T18:34:19;101816.00;;;3.10;100.00
31062;BME280;17724;53.546;9.974;2023-12-07T18:38:20;101799.28;;;2.99;100.00
31062;BME280;17724;53.546;9.974;2023-12-07T18:42:21;101800.78;;;3.24;100.00
31062;BME280;17724;53.546;9.974;2023-12-07T18:46:21;101798.88;;;2.49;100.00
31062;BME280;17724;53.546;9.974;2023-12-07T18:50:21;101809.31;;;2.60;100.00
31062;BME280;17724;53.546;9.974;2023-12-07T18:54:22;101813.09;;;2.74;100.00
31062;BME280;17724;53.546;9.974;2023-12-07T18:58:22;101813.91;;;2.97;100.00
31062;BME280;17724;53.546;9.974;2023-12-07T19:02:25;101812.53;;;3.02;100.00
31062;BME280;17724;53.546;9.974;2023-12-07T19:06:26;101809.50;;;3.19;100.00
31062;BME280;17724;53.546;9.974;2023-12-07T19:10:27;101800.88;;;3.60;100.00
31062;BME280;17724;53.546;9.974;2023-12-07T19:14:28;101796.50;;;2.92;100.00
31062;BME280;17724;53.546;9.974;2023-12-07T19:18:28;101803.88;;;2.60;100.00
31062;BME280;17724;53.546;9.974;2023-12-07T19:22:30;101808.09;;;2.63;100.00
31062;BME280;17724;53.546;9.974;2023-12-07T19:26:30;101797.25;;;3.01;100.00
31062;BME280;17724;53.546;9.974;2023-12-07T19:30:31;101795.53;;;2.85;100.00
31062;BME280;17724;53.546;9.974;2023-12-07T19:34:31;101787.22;;;3.01;100.00
31062;BME280;17724;53.546;9.974;2023-12-07T19:38:32;101805.06;;;3.04;100.00
31062;BME280;17724;53.546;9.974;2023-12-07T19:42:32;101811.13;;;2.68;100.00
31062;BME280;17724;53.546;9.974;2023-12-07T19:46:32;101810.81;;;2.40;100.00
31062;BME280;17724;53.546;9.974;2023-12-07T19:50:33;101820.16;;;2.37;100.00
31062;BME280;17724;53.546;9.974;2023-12-07T19:54:34;101819.22;;;2.76;100.00
31062;BME280;17724;53.546;9.974;2023-12-07T19:58:34;101831.81;;;2.92;100.00
31062;BME280;17724;53.546;9.974;2023-12-07T20:02:36;101820.81;;;3.08;100.00
31062;BME280;17724;53.546;9.974;2023-12-07T20:06:37;101815.75;;;3.20;100.00
31062;BME280;17724;53.546;9.974;2023-12-07T20:10:37;101809.25;;;2.91;100.00
31062;BME280;17724;53.546;9.974;2023-12-07T20:14:39;101806.13;;;2.94;100.00
31062;BME280;17724;53.546;9.974;2023-12-07T20:18:40;101779.91;;;3.02;100.00
31062;BME280;17724;53.546;9.974;2023-12-07T20:22:40;101788.81;;;3.10;100.00
31062;BME280;17724;53.546;9.974;2023-12-07T20:26:41;101778.34;;;2.69;100.00
31062;BME280;17724;53.546;9.974;2023-12-07T20:30:41;101771.50;;;2.74;100.00
31062;BME280;17724;53.546;9.974;2023-12-07T20:34:41;101779.28;;;3.00;100.00
31062;BME280;17724;53.546;9.974;2023-12-07T20:38:42;101777.22;;;3.16;100.00
31062;BME280;17724;53.546;9.974;2023-12-07T20:42:42;101783.00;;;2.99;100.00
31062;BME280;17724;53.546;9.974;2023-12-07T20:46:43;101780.84;;;2.94;100.00
31062;BME280;17724;53.546;9.974;2023-12-07T20:50:43;101756.31;;;2.64;100.00
31062;BME280;17724;53.546;9.974;2023-12-07T20:54:44;101760.00;;;2.71;100.00
31062;BME280;17724;53.546;9.974;2023-12-07T20:58:44;101759.19;;;2.63;100.00
31062;BME280;17724;53.546;9.974;2023-12-07T21:02:45;101766.84;;;2.44;100.00
31062;BME280;17724;53.546;9.974;2023-12-07T21:06:45;101780.53;;;2.28;100.00